Time;durP1;ratioP1;P1;durP2;ratioP2;P2;SDS_P1;SDS_P2;PMS_P1;PMS_P2;Temp;Humidity;BMP_temperature;BMP_pressure;BME280_temperature;BME280_humidity;BME280_pressure;Samples;Min_cycle;Max_cycle;Signal;HPM_P1;HPM_P2
2023/03/08 00:00:23;;;;;;;5.95;3.20;;;7.90;99.90;;;;;;5095218;28;20043;-35
2023/03/08 00:02:49;;;;;;;5.15;3.45;;;7.90;99.90;;;;;;5094550;28;20109;-39
2023/03/08 00:05:15;;;;;;;4.38;3.17;;;8.10;99.90;;;;;;5094352;28;20093;-37
2023/03/08 00:07:41;;;;;;;6.45;3.50;;;8.40;99.90;;;;;;5094348;28;20099;-35
2023/03/08 00:10:07;;;;;;;5.70;3.63;;;8.60;99.90;;;;;;5094451;28;20478;-35
2023/03/08 00:12:33;;;;;;;7.13;3.70;;;8.60;99.90;;;;;;5094126;28;20024;-35
2023/03/08 00:14:58;;;;;;;6.32;3.47;;;8.50;99.90;;;;;;5094400;28;20021;-36
2023/03/08 00:17:25;;;;;;;4.75;3.20;;;8.40;99.90;;;;;;5094388;28;20430;-42
2023/03/08 00:19:51;;;;;;;6.20;3.88;;;8.30;99.90;;;;;;5094122;28;20013;-39
2023/03/08 00:22:16;;;;;;;5.47;3.30;;;8.30;99.90;;;;;;5092716;28;20028;-34
2023/03/08 00:24:42;;;;;;;4.97;2.90;;;8.20;99.90;;;;;;5093933;28;20099;-35
2023/03/08 00:27:08;;;;;;;5.22;3.15;;;8.10;99.90;;;;;;5093552;28;20149;-39
2023/03/08 00:29:33;;;;;;;7.30;4.00;;;8.10;99.90;;;;;;5094001;28;20051;-37
2023/03/08 00:31:59;;;;;;;5.90;3.40;;;8.00;99.90;;;;;;5093728;28;20020;-35
2023/03/08 00:34:24;;;;;;;7.13;4.20;;;8.00;99.90;;;;;;5093950;28;20034;-35
2023/03/08 00:36:50;;;;;;;5.85;3.92;;;8.00;99.90;;;;;;5093811;28;20016;-37
2023/03/08 00:39:16;;;;;;;6.72;3.83;;;8.00;99.90;;;;;;5093684;28;20032;-39
2023/03/08 00:41:42;;;;;;;7.22;4.03;;;7.90;99.90;;;;;;5093649;28;20020;-41
2023/03/08 00:44:07;;;;;;;7.18;3.78;;;7.90;99.90;;;;;;5093690;28;20500;-34
2023/03/08 00:46:33;;;;;;;8.40;4.13;;;7.90;99.90;;;;;;5093289;28;20020;-35
2023/03/08 00:48:59;;;;;;;6.50;3.92;;;7.90;99.90;;;;;;5093888;28;20028;-35
2023/03/08 00:51:25;;;;;;;5.88;3.63;;;7.90;99.90;;;;;;5093716;28;20115;-42
2023/03/08 00:53:51;;;;;;;6.43;4.20;;;7.90;99.90;;;;;;5095621;28;20028;-35
2023/03/08 00:56:17;;;;;;;6.47;4.20;;;7.80;99.90;;;;;;5093427;28;20079;-37
2023/03/08 00:58:43;;;;;;;8.85;4.07;;;7.90;99.90;;;;;;5093112;28;20032;-37
2023/03/08 01:01:13;;;;;;;9.68;4.35;;;7.80;99.90;;;;;;5093278;28;20036;-36
2023/03/08 01:03:39;;;;;;;5.57;3.50;;;7.80;99.90;;;;;;5093712;28;20053;-35
2023/03/08 01:06:10;;;;;;;7.38;3.92;;;8.10;99.90;;;;;;5093418;28;20020;-36
2023/03/08 01:08:36;;;;;;;5.53;3.58;;;8.40;99.90;;;;;;5093594;28;20104;-40
2023/03/08 01:11:02;;;;;;;4.95;3.40;;;8.50;99.90;;;;;;5093365;28;20031;-35
2023/03/08 01:13:34;;;;;;;7.75;4.20;;;8.50;99.90;;;;;;5093190;28;20077;-37
2023/03/08 01:16:01;;;;;;;6.57;4.10;;;8.40;99.90;;;;;;5093923;28;20099;-37
2023/03/08 01:18:27;;;;;;;7.63;3.92;;;8.30;99.90;;;;;;5093040;28;20490;-35
2023/03/08 01:21:01;;;;;;;6.65;3.88;;;8.20;99.90;;;;;;5093353;28;20028;-41
2023/03/08 01:23:27;;;;;;;;;;;8.10;99.90;;;;;;5093483;28;20043;-38
2023/03/08 01:26:07;;;;;;;6.47;4.28;;;8.10;99.90;;;;;;5092482;28;19961;-41
2023/03/08 01:28:34;;;;;;;8.77;4.25;;;8.00;99.90;;;;;;5093231;28;20107;-39
2023/03/08 01:31:07;;;;;;;8.73;4.53;;;8.00;99.90;;;;;;5092736;28;20427;-38
2023/03/08 01:33:33;;;;;;;8.18;4.70;;;7.90;99.90;;;;;;5092503;28;20024;-38
2023/03/08 01:35:58;;;;;;;6.88;4.50;;;7.90;99.90;;;;;;5092708;28;20051;-43
2023/03/08 01:38:24;;;;;;;6.60;4.50;;;7.80;99.90;;;;;;5092669;28;20489;-36
2023/03/08 01:40:58;;;;;;;8.93;4.70;;;7.90;99.90;;;;;;5092573;28;20028;-39
2023/03/08 01:43:25;;;;;;;;;;;7.80;99.90;;;;;;5093192;28;20069;-36
2023/03/08 01:46:14;;;;;;;6.70;4.10;;;7.80;99.90;;;;;;5091323;28;19915;-38
2023/03/08 01:48:46;;;;;;;9.02;4.82;;;7.80;99.90;;;;;;5092041;28;20027;-41
2023/03/08 01:51:17;;;;;;;6.55;4.30;;;7.80;99.90;;;;;;5093014;28;20054;-39
2023/03/08 01:53:43;;;;;;;8.40;4.90;;;7.80;99.90;;;;;;5092976;28;20020;-35
2023/03/08 01:56:11;;;;;;;8.63;4.72;;;7.80;99.90;;;;;;5092044;28;20389;-37
2023/03/08 01:58:40;;;;;;;5.93;4.50;;;7.80;99.90;;;;;;5092217;28;20024;-37
2023/03/08 02:01:06;;;;;;;7.55;4.88;;;7.80;99.90;;;;;;5092508;28;20039;-39
2023/03/08 02:03:32;;;;;;;8.32;4.45;;;7.70;99.90;;;;;;5092542;28;20028;-36
2023/03/08 02:05:57;;;;;;;7.53;4.43;;;8.00;99.90;;;;;;5093010;28;20056;-35
2023/03/08 02:08:23;;;;;;;8.70;4.95;;;8.40;99.90;;;;;;5099258;28;20024;-37
2023/03/08 02:10:49;;;;;;;8.68;4.75;;;8.50;99.90;;;;;;5092398;28;20099;-37
2023/03/08 02:13:17;;;;;;;6.97;4.47;;;8.40;99.90;;;;;;5094825;28;20544;-38
2023/03/08 02:15:43;;;;;;;6.35;4.22;;;8.30;99.90;;;;;;5097125;28;20424;-37
2023/03/08 02:18:09;;;;;;;5.90;4.15;;;8.20;99.90;;;;;;5092309;28;20020;-34
2023/03/08 02:20:37;;;;;;;7.53;4.70;;;8.20;99.90;;;;;;5091973;28;20111;-35
2023/03/08 02:23:24;;;;;;;6.32;4.45;;;8.10;99.90;;;;;;5091771;28;20095;-35
2023/03/08 02:26:03;;;;;;;7.15;4.43;;;8.00;99.90;;;;;;5092838;28;20412;-35
2023/03/08 02:28:29;;;;;;;7.70;4.57;;;8.00;99.90;;;;;;5091618;28;20032;-35
2023/03/08 02:30:56;;;;;;;7.75;4.35;;;7.90;99.90;;;;;;5091802;28;20028;-35
2023/03/08 02:33:22;;;;;;;8.18;4.32;;;7.90;99.90;;;;;;5091749;28;20526;-35
2023/03/08 02:35:48;;;;;;;8.75;4.72;;;7.80;99.90;;;;;;5091400;28;20050;-38
2023/03/08 02:38:16;;;;;;;8.05;4.65;;;7.80;99.90;;;;;;5091587;28;20093;-41
2023/03/08 02:40:41;;;;;;;8.65;4.20;;;7.80;99.90;;;;;;5091694;28;20032;-37
2023/03/08 02:43:08;;;;;;;6.22;4.32;;;7.80;99.90;;;;;;5091505;28;20114;-34
2023/03/08 02:45:34;;;;;;;6.38;4.15;;;7.80;99.90;;;;;;5091433;28;20054;-35
2023/03/08 02:48:01;;;;;;;6.13;4.20;;;7.80;99.90;;;;;;5091636;28;20454;-35
2023/03/08 02:50:26;;;;;;;7.22;4.55;;;7.80;99.90;;;;;;5091383;28;20435;-36
2023/03/08 02:52:52;;;;;;;9.10;4.65;;;7.80;99.90;;;;;;5091328;28;20016;-35
2023/03/08 02:55:18;;;;;;;8.85;4.63;;;7.80;99.90;;;;;;5091660;28;20495;-35
2023/03/08 02:57:43;;;;;;;9.20;4.82;;;7.80;99.90;;;;;;5091686;28;20030;-39
2023/03/08 03:00:10;;;;;;;6.75;4.65;;;7.80;99.90;;;;;;5091264;28;20063;-36
2023/03/08 03:02:35;;;;;;;7.53;4.40;;;7.70;99.90;;;;;;5091390;28;20074;-37
2023/03/08 03:05:06;;;;;;;8.85;4.50;;;7.90;99.90;;;;;;5091337;28;20059;-39
2023/03/08 03:07:40;;;;;;;6.70;4.70;;;8.20;99.90;;;;;;5090034;28;20028;-35
2023/03/08 03:10:10;;;;;;;7.18;4.60;;;8.50;99.90;;;;;;5091373;28;20142;-37
2023/03/08 03:12:35;;;;;;;6.55;4.38;;;8.50;99.90;;;;;;5091127;28;20031;-35
2023/03/08 03:15:03;;;;;;;7.90;4.28;;;8.40;99.90;;;;;;5091386;28;20024;-39
2023/03/08 03:17:29;;;;;;;6.70;4.43;;;8.30;99.90;;;;;;5090906;28;20028;-41
2023/03/08 03:19:55;;;;;;;6.82;4.15;;;8.20;99.90;;;;;;5091171;28;20024;-37
2023/03/08 03:22:21;;;;;;;7.53;4.30;;;8.20;99.90;;;;;;5090993;28;20030;-35
2023/03/08 03:24:49;;;;;;;5.60;4.00;;;8.10;99.90;;;;;;5091030;28;20020;-34
2023/03/08 03:27:15;;;;;;;5.68;4.05;;;8.10;99.90;;;;;;5090874;28;20024;-35
2023/03/08 03:29:41;;;;;;;6.90;4.57;;;8.00;99.90;;;;;;5091190;28;20130;-39
2023/03/08 03:32:07;;;;;;;8.32;4.45;;;8.00;99.90;;;;;;5091461;28;20032;-35
2023/03/08 03:34:32;;;;;;;6.93;4.10;;;7.90;99.90;;;;;;5091449;28;20023;-36
2023/03/08 03:36:58;;;;;;;8.07;4.70;;;7.90;99.90;;;;;;5090613;28;20028;-39
2023/03/08 03:39:24;;;;;;;6.43;4.25;;;7.90;99.90;;;;;;5092525;28;20024;-35
2023/03/08 03:41:49;;;;;;;6.85;4.00;;;7.80;99.90;;;;;;5090040;28;20378;-35
2023/03/08 03:44:15;;;;;;;7.50;4.30;;;7.80;99.90;;;;;;5090277;28;20034;-34
2023/03/08 03:46:41;;;;;;;6.18;4.05;;;7.80;99.90;;;;;;5090841;28;20028;-35
2023/03/08 03:49:06;;;;;;;7.50;4.63;;;7.80;99.90;;;;;;5091105;28;20027;-35
2023/03/08 03:51:32;;;;;;;5.35;3.78;;;7.80;99.90;;;;;;5091228;28;20028;-35
2023/03/08 03:53:58;;;;;;;6.88;4.43;;;7.80;99.90;;;;;;5090851;28;20009;-39
2023/03/08 03:56:26;;;;;;;6.75;4.40;;;7.80;99.90;;;;;;5090922;28;20033;-34
2023/03/08 03:58:52;;;;;;;8.27;4.72;;;7.70;99.90;;;;;;5091858;28;20024;-37
2023/03/08 04:01:27;;;;;;;8.20;4.38;;;7.70;99.90;;;;;;5090983;28;20062;-35
2023/03/08 04:03:53;;;;;;;;;;;7.70;99.90;;;;;;5091643;28;20031;-34
2023/03/08 04:06:24;;;;;;;7.75;4.70;;;8.00;99.90;;;;;;5091022;28;19911;-37
2023/03/08 04:08:55;;;;;;;5.70;4.13;;;8.40;99.90;;;;;;5094356;28;20394;-35
2023/03/08 04:11:24;;;;;;;6.15;4.25;;;8.50;99.90;;;;;;5094432;28;20134;-37
2023/03/08 04:13:50;;;;;;;7.03;4.53;;;8.40;99.90;;;;;;5094335;28;20016;-39
2023/03/08 04:16:18;;;;;;;7.50;4.22;;;8.30;99.90;;;;;;5093913;28;20027;-34
2023/03/08 04:18:44;;;;;;;7.07;4.57;;;8.20;99.90;;;;;;5094842;28;20036;-34
2023/03/08 04:21:10;;;;;;;8.38;4.13;;;8.20;99.90;;;;;;5094423;28;20088;-42
2023/03/08 04:23:36;;;;;;;8.45;3.67;;;8.10;99.90;;;;;;5094143;28;20096;-37
2023/03/08 04:26:04;;;;;;;7.45;4.20;;;8.00;99.90;;;;;;5094115;28;20028;-36
2023/03/08 04:28:30;;;;;;;6.78;4.20;;;8.00;99.90;;;;;;5094030;28;20028;-34
2023/03/08 04:30:56;;;;;;;5.78;3.83;;;7.90;99.90;;;;;;5092466;28;20367;-34
2023/03/08 04:33:22;;;;;;;7.20;4.05;;;7.90;99.90;;;;;;5094182;28;20036;-35
2023/03/08 04:35:48;;;;;;;6.00;3.90;;;7.80;99.90;;;;;;5093614;28;20024;-35
2023/03/08 04:38:14;;;;;;;6.35;4.03;;;7.80;99.90;;;;;;5093885;28;20028;-35
2023/03/08 04:43:32;;;;;;;7.60;4.53;;;7.80;99.90;;;;;;5093607;28;20035;-39
2023/03/08 04:45:59;;;;;;;6.25;3.90;;;7.80;99.90;;;;;;5093877;28;20028;-41
2023/03/08 04:48:25;;;;;;;5.88;4.00;;;7.80;99.90;;;;;;5093809;28;20077;-38
2023/03/08 04:50:55;;;;;;;5.63;3.80;;;7.70;99.90;;;;;;5093522;28;20036;-34
2023/03/08 04:53:22;;;;;;;8.43;4.68;;;7.70;99.90;;;;;;5093372;28;20043;-36
2023/03/08 04:55:48;;;;;;;5.93;3.97;;;7.70;99.90;;;;;;5094444;28;20038;-38
2023/03/08 04:58:14;;;;;;;6.50;3.90;;;7.70;99.90;;;;;;5093603;28;20111;-39
2023/03/08 05:00:40;;;;;;;7.75;4.18;;;7.70;99.90;;;;;;5093288;28;20115;-35
2023/03/08 05:03:05;;;;;;;7.65;4.30;;;7.70;99.90;;;;;;5093301;28;20030;-39
2023/03/08 05:05:31;;;;;;;7.72;4.20;;;7.90;99.90;;;;;;5093470;28;20055;-35
2023/03/08 05:07:58;;;;;;;8.00;4.35;;;8.20;99.90;;;;;;5097761;28;20038;-35
2023/03/08 05:10:24;;;;;;;6.10;3.90;;;8.50;99.90;;;;;;5100558;28;20020;-37
2023/03/08 05:12:50;;;;;;;6.03;3.90;;;8.50;99.90;;;;;;5098540;28;20536;-35
2023/03/08 05:15:16;;;;;;;5.82;4.30;;;8.40;99.90;;;;;;5094458;28;20036;-34
2023/03/08 05:17:42;;;;;;;7.30;4.15;;;8.30;99.90;;;;;;5093962;28;20103;-34
2023/03/08 05:20:08;;;;;;;6.82;4.20;;;8.20;99.90;;;;;;5092417;28;20494;-37
2023/03/08 05:22:33;;;;;;;6.13;4.00;;;8.10;99.90;;;;;;5093086;28;20026;-42
2023/03/08 05:24:59;;;;;;;6.85;3.72;;;8.00;99.90;;;;;;5095635;28;20028;-35
2023/03/08 05:27:25;;;;;;;8.57;4.47;;;8.00;99.90;;;;;;5092960;28;20107;-35
2023/03/08 05:29:51;;;;;;;7.60;4.45;;;7.90;99.90;;;;;;5094678;28;20454;-36
2023/03/08 05:32:17;;;;;;;8.25;4.05;;;7.90;99.90;;;;;;5092792;28;20023;-36
2023/03/08 05:34:43;;;;;;;7.57;4.78;;;7.80;99.90;;;;;;5093420;28;20020;-37
2023/03/08 05:37:08;;;;;;;5.72;3.90;;;7.80;99.90;;;;;;5092483;28;20496;-37
2023/03/08 05:39:34;;;;;;;8.85;4.40;;;7.80;99.90;;;;;;5092493;28;20363;-35
2023/03/08 05:41:59;;;;;;;8.05;4.18;;;7.80;99.90;;;;;;5092476;28;20031;-35
2023/03/08 05:44:25;;;;;;;6.05;4.05;;;7.80;99.90;;;;;;5092494;28;20043;-36
2023/03/08 05:46:51;;;;;;;7.28;4.20;;;7.70;99.90;;;;;;5090871;28;20058;-35
2023/03/08 05:49:17;;;;;;;8.10;4.38;;;7.70;99.90;;;;;;5092347;28;20111;-36
2023/03/08 05:51:43;;;;;;;5.35;3.65;;;7.70;99.90;;;;;;5092601;28;20131;-34
2023/03/08 05:54:09;;;;;;;7.15;4.68;;;7.70;99.90;;;;;;5093166;28;20016;-35
2023/03/08 05:56:35;;;;;;;6.97;4.28;;;7.70;99.90;;;;;;5092220;28;20020;-35
2023/03/08 05:59:00;;;;;;;6.40;4.32;;;7.70;99.90;;;;;;5092837;28;20028;-38
2023/03/08 06:01:27;;;;;;;7.93;4.50;;;7.70;99.90;;;;;;5092009;28;20084;-35
2023/03/08 06:03:55;;;;;;;7.47;4.28;;;7.70;99.90;;;;;;5092211;28;20043;-37
2023/03/08 06:06:24;;;;;;;8.02;4.68;;;8.00;99.90;;;;;;5092310;28;20020;-41
2023/03/08 06:08:50;;;;;;;6.45;4.32;;;8.30;99.90;;;;;;5092730;28;20024;-41
2023/03/08 06:11:16;;;;;;;7.30;4.63;;;8.50;99.90;;;;;;5092287;28;20386;-34
2023/03/08 06:13:42;;;;;;;7.88;4.40;;;8.40;99.90;;;;;;5092202;28;20020;-34
2023/03/08 06:16:08;;;;;;;7.50;4.85;;;8.30;99.90;;;;;;5091021;28;20416;-34
2023/03/08 06:18:38;;;;;;;8.55;4.47;;;8.20;99.90;;;;;;5092009;28;20028;-34
2023/03/08 06:21:16;;;;;;;9.18;5.10;;;8.10;99.90;;;;;;5091858;28;20021;-41
2023/03/08 06:23:42;;;;;;;9.43;5.18;;;8.00;99.90;;;;;;5091908;28;20027;-40
2023/03/08 06:26:09;;;;;;;7.20;4.57;;;8.00;99.90;;;;;;5091429;28;20520;-37
2023/03/08 06:28:35;;;;;;;8.02;4.85;;;7.90;99.90;;;;;;5091783;28;20020;-35
2023/03/08 06:31:01;;;;;;;7.43;4.82;;;7.90;99.90;;;;;;5092181;28;20638;-35
2023/03/08 06:33:29;;;;;;;7.97;4.95;;;7.80;99.90;;;;;;5090287;28;20020;-35
2023/03/08 06:36:28;;;;;;;7.18;4.57;;;7.80;99.90;;;;;;5091338;28;20028;-38
2023/03/08 06:38:53;;;;;;;6.82;5.00;;;7.70;99.90;;;;;;5086730;28;20036;-38
2023/03/08 06:41:20;;;;;;;6.95;4.25;;;7.70;99.90;;;;;;5091809;28;20027;-42
2023/03/08 06:43:46;;;;;;;7.65;5.18;;;7.70;99.90;;;;;;5091536;28;20024;-37
2023/03/08 06:46:15;;;;;;;8.45;4.97;;;7.70;99.90;;;;;;5089677;28;20043;-35
2023/03/08 06:48:41;;;;;;;8.68;4.70;;;7.70;99.90;;;;;;5091697;28;20024;-37
2023/03/08 06:51:07;;;;;;;7.18;4.55;;;7.70;99.90;;;;;;5090628;28;20022;-34
2023/03/08 06:53:35;;;;;;;7.38;4.82;;;7.70;99.90;;;;;;5091539;28;20102;-34
2023/03/08 06:56:02;;;;;;;10.25;5.28;;;7.70;99.90;;;;;;5091187;28;20027;-39
2023/03/08 06:58:28;;;;;;;8.48;4.75;;;7.70;99.90;;;;;;5091352;28;20099;-41
2023/03/08 07:00:54;;;;;;;9.35;4.68;;;7.70;99.90;;;;;;5091132;28;20437;-44
2023/03/08 07:03:19;;;;;;;6.53;4.28;;;7.70;99.90;;;;;;5091290;28;20410;-35
2023/03/08 07:05:45;;;;;;;8.43;5.35;;;7.90;99.90;;;;;;5091178;28;20309;-38
2023/03/08 07:08:11;;;;;;;7.97;5.68;;;8.20;99.90;;;;;;5091246;28;20052;-37
2023/03/08 07:10:36;;;;;;;7.25;4.82;;;8.40;99.90;;;;;;5091252;28;20427;-37
2023/03/08 07:13:02;;;;;;;8.68;5.75;;;8.30;99.90;;;;;;5091113;28;20090;-43
2023/03/08 07:15:28;;;;;;;7.50;5.00;;;8.20;99.90;;;;;;5091645;28;20070;-37
2023/03/08 07:17:55;;;;;;;7.18;4.80;;;8.20;99.90;;;;;;5091329;28;20059;-41
2023/03/08 07:20:22;;;;;;;10.73;4.93;;;8.10;99.90;;;;;;5089900;28;20035;-35
2023/03/08 07:22:48;;;;;;;16.20;10.07;;;8.00;99.90;;;;;;5091058;28;20117;-35
2023/03/08 07:25:17;;;;;;;17.75;10.43;;;7.90;99.90;;;;;;5091370;28;20048;-35
2023/03/08 07:27:42;;;;;;;17.80;9.80;;;7.70;99.90;;;;;;5090923;28;20103;-35
2023/03/08 07:30:09;;;;;;;24.40;10.10;;;7.60;99.90;;;;;;5091217;28;20103;-35
2023/03/08 07:32:38;;;;;;;16.70;10.32;;;7.60;99.90;;;;;;5090902;28;20035;-36
2023/03/08 07:35:04;;;;;;;18.08;9.90;;;7.60;99.90;;;;;;5098416;28;20373;-35
2023/03/08 07:37:30;;;;;;;18.27;10.13;;;7.50;99.90;;;;;;5090671;28;20032;-35
2023/03/08 07:39:56;;;;;;;15.32;8.80;;;7.50;99.90;;;;;;5090943;28;20031;-35
2023/03/08 07:42:21;;;;;;;15.50;9.38;;;7.60;99.90;;;;;;5091310;28;20469;-35
2023/03/08 07:44:47;;;;;;;16.88;9.68;;;7.50;99.90;;;;;;5094082;28;20318;-35
2023/03/08 07:47:13;;;;;;;17.70;9.63;;;7.50;99.90;;;;;;5094519;28;20462;-35
2023/03/08 07:49:38;;;;;;;15.05;9.15;;;7.50;99.90;;;;;;5094994;28;20028;-35
2023/03/08 07:52:04;;;;;;;15.13;9.32;;;7.50;99.90;;;;;;5094660;28;20038;-36
2023/03/08 07:54:30;;;;;;;15.60;8.52;;;7.50;99.90;;;;;;5094761;28;20024;-35
2023/03/08 07:56:55;;;;;;;13.23;8.75;;;7.50;99.90;;;;;;5094551;28;20032;-35
2023/03/08 07:59:22;;;;;;;14.20;8.85;;;7.50;99.90;;;;;;5095884;28;20032;-35
2023/03/08 08:01:48;;;;;;;12.05;7.65;;;7.50;99.90;;;;;;5099628;28;20032;-36
2023/03/08 08:04:14;;;;;;;13.82;8.32;;;7.50;99.90;;;;;;5095160;28;20024;-35
2023/03/08 08:06:40;;;;;;;14.15;8.27;;;7.50;99.90;;;;;;5094187;28;20028;-35
2023/03/08 08:09:07;;;;;;;13.95;7.75;;;7.40;99.90;;;;;;5094416;28;20025;-35
2023/03/08 08:11:36;;;;;;;15.25;8.23;;;7.40;99.90;;;;;;5094176;28;20031;-35
2023/03/08 08:14:02;;;;;;;11.27;7.22;;;7.40;99.90;;;;;;5096554;28;20066;-35
2023/03/08 08:16:28;;;;;;;13.40;7.13;;;7.40;99.90;;;;;;5094788;28;20099;-35
2023/03/08 08:18:53;;;;;;;12.20;7.57;;;7.50;99.90;;;;;;5094210;28;20469;-35
2023/03/08 08:21:19;;;;;;;13.73;7.40;;;7.40;99.90;;;;;;5095095;28;20035;-36
2023/03/08 08:23:46;;;;;;;11.63;7.30;;;7.50;99.90;;;;;;5094515;28;20107;-35
2023/03/08 08:26:20;;;;;;;12.23;7.32;;;7.50;99.90;;;;;;5094321;28;20051;-36
2023/03/08 08:28:51;;;;;;;12.98;6.45;;;7.50;99.90;;;;;;5092869;28;20063;-34
2023/03/08 08:31:19;;;;;;;10.93;6.95;;;7.50;99.90;;;;;;5094387;28;20079;-34
2023/03/08 08:33:45;;;;;;;10.57;6.93;;;7.40;99.90;;;;;;5092823;28;20032;-35
2023/03/08 08:36:14;;;;;;;12.40;7.18;;;7.40;99.90;;;;;;5093527;28;20034;-34
2023/03/08 08:38:42;;;;;;;9.60;6.65;;;7.40;99.90;;;;;;5094486;28;20595;-34
2023/03/08 08:41:08;;;;;;;10.27;6.65;;;7.50;99.90;;;;;;5093999;28;20052;-34
2023/03/08 08:43:35;;;;;;;11.45;6.90;;;7.50;99.90;;;;;;5094085;28;20024;-34
2023/03/08 08:46:02;;;;;;;12.15;7.25;;;7.50;99.90;;;;;;5093459;28;20039;-36
2023/03/08 08:48:28;;;;;;;11.90;6.90;;;7.50;99.90;;;;;;5093961;28;20016;-37
2023/03/08 08:50:54;;;;;;;10.63;6.38;;;7.50;99.90;;;;;;5093977;28;20066;-37
2023/03/08 08:53:21;;;;;;;10.82;6.70;;;7.50;99.90;;;;;;5093690;28;20039;-35
2023/03/08 08:55:46;;;;;;;9.52;6.13;;;7.50;99.90;;;;;;5093522;28;20028;-37
2023/03/08 08:58:14;;;;;;;10.63;6.32;;;7.50;99.90;;;;;;5093901;28;20398;-34
2023/03/08 09:00:42;;;;;;;10.40;7.05;;;7.50;99.90;;;;;;5093975;28;20039;-34
2023/03/08 09:03:08;;;;;;;8.57;5.88;;;7.50;99.90;;;;;;5075627;28;20028;-34
2023/03/08 09:05:38;;;;;;;9.93;6.43;;;7.50;99.90;;;;;;5093077;28;20031;-35
2023/03/08 09:08:04;;;;;;;11.48;6.22;;;7.50;99.90;;;;;;5092916;28;20020;-34
2023/03/08 09:10:33;;;;;;;20.52;10.48;;;7.50;99.90;;;;;;5093074;28;20035;-34
2023/03/08 09:12:59;;;;;;;21.35;12.32;;;7.50;99.90;;;;;;5092992;28;20016;-36
2023/03/08 09:15:24;;;;;;;20.35;12.20;;;7.40;99.90;;;;;;5094238;28;20363;-36
2023/03/08 09:17:50;;;;;;;18.70;11.48;;;7.40;99.90;;;;;;5093213;28;20516;-35
2023/03/08 09:20:17;;;;;;;18.83;12.25;;;7.40;99.90;;;;;;5093114;28;20086;-35
2023/03/08 09:22:43;;;;;;;20.88;11.95;;;7.40;99.90;;;;;;5092870;28;20028;-35
2023/03/08 09:25:10;;;;;;;20.55;11.13;;;7.50;99.90;;;;;;5092826;28;20106;-36
2023/03/08 09:27:37;;;;;;;16.85;11.52;;;7.50;99.90;;;;;;5092843;28;20052;-36
2023/03/08 09:30:03;;;;;;;18.65;10.60;;;7.50;99.90;;;;;;5093029;28;20074;-36
2023/03/08 09:32:33;;;;;;;18.58;11.00;;;7.50;99.90;;;;;;5092684;28;20020;-38
2023/03/08 09:34:59;;;;;;;17.52;10.95;;;7.50;99.90;;;;;;5092638;28;20047;-35
2023/03/08 09:37:24;;;;;;;19.33;11.70;;;7.50;99.90;;;;;;5092947;28;20093;-35
2023/03/08 09:39:51;;;;;;;17.38;11.02;;;7.50;99.90;;;;;;5092548;28;20027;-35
2023/03/08 09:42:23;;;;;;;16.27;10.15;;;7.50;99.90;;;;;;5092442;28;20031;-35
2023/03/08 09:45:05;;;;;;;15.93;10.50;;;7.60;99.90;;;;;;5092510;28;20482;-35
2023/03/08 09:47:43;;;;;;;17.83;10.55;;;7.60;99.90;;;;;;5092096;28;20212;-38
2023/03/08 09:50:16;;;;;;;14.65;10.35;;;7.60;99.90;;;;;;5092423;28;20066;-38
2023/03/08 09:52:53;;;;;;;16.98;10.60;;;7.60;99.90;;;;;;5092340;28;20020;-35
2023/03/08 09:55:28;;;;;;;15.73;9.57;;;7.60;99.90;;;;;;5093042;28;20093;-38
2023/03/08 09:57:56;;;;;;;13.88;9.23;;;7.50;99.90;;;;;;5092563;28;20048;-37
2023/03/08 10:00:34;;;;;;;16.70;9.52;;;7.50;99.90;;;;;;5092082;28;20485;-37
2023/03/08 10:03:11;;;;;;;15.00;9.15;;;7.50;99.90;;;;;;5092088;28;20039;-35
2023/03/08 10:05:51;;;;;;;19.00;9.52;;;7.60;99.90;;;;;;5092018;28;20032;-37
2023/03/08 10:08:48;;;;;;;12.98;8.63;;;7.60;99.90;;;;;;5092371;28;20074;-37
2023/03/08 10:11:28;;;;;;;14.90;8.85;;;7.60;99.90;;;;;;5092040;28;20074;-36
2023/03/08 10:13:59;;;;;;;14.35;8.30;;;7.60;99.90;;;;;;5092900;28;20036;-37
2023/03/08 10:16:32;;;;;;;13.02;8.50;;;7.60;99.90;;;;;;5092145;28;20024;-37
2023/03/08 10:19:20;;;;;;;15.13;8.75;;;7.60;99.90;;;;;;5093712;28;20028;-37
2023/03/08 10:21:46;;;;;;;13.48;8.00;;;7.60;99.90;;;;;;5092802;28;20028;-38
2023/03/08 10:24:25;;;;;;;14.52;8.73;;;7.70;99.90;;;;;;5091996;28;20035;-38
2023/03/08 10:26:53;;;;;;;14.48;8.15;;;7.60;99.90;;;;;;5091441;28;20042;-36
2023/03/08 10:29:18;;;;;;;12.25;7.88;;;7.60;99.90;;;;;;5091818;28;20099;-35
2023/03/08 10:31:46;;;;;;;17.20;8.35;;;7.60;99.90;;;;;;5093396;28;20055;-35
2023/03/08 10:34:13;;;;;;;11.93;6.88;;;7.60;99.90;;;;;;5092043;28;20073;-35
2023/03/08 10:36:56;;;;;;;11.88;7.00;;;7.70;99.90;;;;;;5091532;28;20040;-36
2023/03/08 10:39:22;;;;;;;12.32;6.80;;;7.70;99.90;;;;;;5091679;28;20489;-34
2023/03/08 10:41:53;;;;;;;13.02;6.90;;;7.70;99.90;;;;;;5091385;28;20036;-35
2023/03/08 10:44:41;;;;;;;12.02;7.18;;;7.70;99.90;;;;;;5094160;28;20032;-37
2023/03/08 10:47:39;;;;;;;9.75;5.78;;;7.70;99.90;;;;;;5101505;28;20055;-36
2023/03/08 10:50:20;;;;;;;8.77;6.00;;;7.70;99.90;;;;;;5078287;28;20035;-38
2023/03/08 10:52:47;;;;;;;10.27;5.95;;;7.70;99.90;;;;;;5091720;28;20385;-37
2023/03/08 10:55:14;;;;;;;10.60;6.45;;;7.70;99.90;;;;;;5091830;28;20024;-37
2023/03/08 10:57:47;;;;;;;10.05;5.43;;;7.70;99.90;;;;;;5091166;28;20016;-36
2023/03/08 11:00:19;;;;;;;9.02;5.45;;;7.70;99.90;;;;;;5091352;28;20028;-38
2023/03/08 11:02:46;;;;;;;9.07;5.13;;;7.70;99.90;;;;;;5091133;28;20524;-36
2023/03/08 11:05:25;;;;;;;9.37;5.60;;;7.70;99.90;;;;;;5091928;28;20470;-37
2023/03/08 11:07:54;;;;;;;7.57;4.80;;;7.70;99.90;;;;;;5092272;28;20103;-37
2023/03/08 11:10:24;;;;;;;7.03;4.72;;;7.70;99.90;;;;;;5091642;28;20024;-40
2023/03/08 11:13:19;;;;;;;8.82;5.18;;;7.70;99.90;;;;;;5091109;28;20042;-37
2023/03/08 11:15:48;;;;;;;;;;;7.70;99.90;;;;;;5086681;28;20036;-37
2023/03/08 11:18:30;;;;;;;7.68;4.75;;;7.80;99.90;;;;;;5093752;28;20507;-35
2023/03/08 11:21:04;;;;;;;6.97;4.30;;;7.80;99.90;;;;;;5095302;28;20028;-36
2023/03/08 11:23:45;;;;;;;6.40;3.90;;;7.80;99.90;;;;;;5095286;28;20111;-37
2023/03/08 11:26:45;;;;;;;6.60;4.13;;;7.80;99.90;;;;;;5095071;28;20466;-38
2023/03/08 11:29:14;;;;;;;7.85;3.97;;;7.80;99.90;;;;;;5095745;28;20016;-38
2023/03/08 11:31:53;;;;;;;6.03;4.10;;;7.80;99.90;;;;;;5096364;28;20034;-37
2023/03/08 11:34:39;;;;;;;5.65;3.70;;;7.80;99.90;;;;;;5094953;28;20465;-38
2023/03/08 11:37:13;;;;;;;5.38;3.22;;;7.80;99.90;;;;;;5094797;28;20028;-36
2023/03/08 11:39:45;;;;;;;5.50;3.53;;;7.90;99.90;;;;;;5094983;28;20016;-38
2023/03/08 11:42:52;;;;;;;8.05;3.78;;;7.90;99.90;;;;;;5094662;28;20028;-36
2023/03/08 11:45:27;;;;;;;5.97;3.50;;;7.90;99.90;;;;;;5094754;28;20417;-35
2023/03/08 11:48:15;;;;;;;5.82;3.03;;;7.90;99.90;;;;;;5094573;28;20028;-34
2023/03/08 11:50:44;;;;;;;5.45;3.13;;;7.90;99.90;;;;;;5094715;28;20024;-35
2023/03/08 11:53:18;;;;;;;7.80;3.08;;;7.90;99.90;;;;;;5094604;28;20020;-35
2023/03/08 11:56:12;;;;;;;4.90;2.90;;;7.90;99.90;;;;;;5094856;28;20052;-35
2023/03/08 11:58:52;;;;;;;4.25;2.58;;;7.90;99.90;;;;;;5093259;28;20028;-36
2023/03/08 12:01:34;;;;;;;3.97;2.75;;;8.00;99.90;;;;;;5094522;28;20404;-35
2023/03/08 12:04:10;;;;;;;5.22;2.67;;;7.90;99.90;;;;;;5095319;28;20039;-37
2023/03/08 12:06:39;;;;;;;4.22;2.55;;;8.00;99.90;;;;;;5094309;28;20020;-36
2023/03/08 12:09:26;;;;;;;6.93;2.80;;;8.00;99.90;;;;;;5095325;28;20043;-35
2023/03/08 12:11:58;;;;;;;4.50;2.90;;;8.00;99.90;;;;;;5094460;28;20028;-38
2023/03/08 12:14:45;;;;;;;3.90;2.60;;;8.00;99.90;;;;;;5094286;28;20055;-35
2023/03/08 12:17:26;;;;;;;4.00;2.60;;;8.00;99.90;;;;;;5094130;28;20504;-36
2023/03/08 12:19:52;;;;;;;3.30;2.38;;;8.10;99.90;;;;;;5094932;28;20028;-38
2023/03/08 12:22:29;;;;;;;4.40;2.33;;;8.10;99.90;;;;;;5095410;28;20097;-37
2023/03/08 12:24:59;;;;;;;3.75;2.55;;;8.10;99.90;;;;;;5095789;28;20081;-36
2023/03/08 12:27:49;;;;;;;5.00;2.53;;;8.10;99.90;;;;;;5093858;28;20028;-36
2023/03/08 12:30:18;;;;;;;3.03;2.10;;;8.10;99.90;;;;;;5093238;28;20020;-36
2023/03/08 12:32:46;;;;;;;2.58;1.95;;;8.20;99.90;;;;;;5093686;28;20073;-38
2023/03/08 12:35:32;;;;;;;4.65;2.42;;;8.20;99.90;;;;;;5093909;28;20020;-39
2023/03/08 12:38:25;;;;;;;3.63;2.20;;;8.20;99.90;;;;;;5093670;28;20028;-40
2023/03/08 12:40:53;;;;;;;2.13;1.70;;;8.20;99.90;;;;;;5093746;28;20028;-36
2023/03/08 12:43:19;;;;;;;3.70;2.08;;;8.30;99.90;;;;;;5094383;28;20093;-36
2023/03/08 12:45:46;;;;;;;3.80;2.20;;;8.30;99.90;;;;;;5093485;28;20056;-36
2023/03/08 12:48:18;;;;;;;2.67;1.92;;;8.30;99.90;;;;;;5093489;28;20020;-36
2023/03/08 12:50:55;;;;;;;2.60;1.52;;;8.30;99.90;;;;;;5093558;28;20028;-36
2023/03/08 12:53:38;;;;;;;3.25;1.88;;;8.30;99.90;;;;;;5093468;28;20056;-35
2023/03/08 12:56:20;;;;;;;4.43;1.80;;;8.20;99.90;;;;;;5093274;28;20024;-36
2023/03/08 12:58:53;;;;;;;4.20;1.80;;;8.30;99.90;;;;;;5093455;28;20059;-35
2023/03/08 13:01:34;;;;;;;3.33;1.90;;;8.30;99.90;;;;;;5094959;28;20024;-35
2023/03/08 13:04:02;;;;;;;2.53;1.70;;;8.30;99.90;;;;;;5093329;28;20028;-36
2023/03/08 13:06:52;;;;;;;2.58;1.40;;;8.40;99.90;;;;;;5093071;28;20478;-36
2023/03/08 13:09:27;;;;;;;2.13;1.67;;;8.40;99.90;;;;;;5093303;28;20020;-36